sensor_id;sensor_type;location;lat;lon;timestamp;temperature;humidity
68578;SHT31;61668;45.388;11.784;2023-04-07T00:01:47;6.70;59.89
68578;SHT31;61668;45.388;11.784;2023-04-07T00:04:12;6.65;59.78
68578;SHT31;61668;45.388;11.784;2023-04-07T00:06:38;6.62;59.85
68578;SHT31;61668;45.388;11.784;2023-04-07T00:09:04;6.55;60.12
68578;SHT31;61668;45.388;11.784;2023-04-07T00:11:30;6.51;60.33
68578;SHT31;61668;45.388;11.784;2023-04-07T00:13:56;6.48;60.44
68578;SHT31;61668;45.388;11.784;2023-04-07T00:16:22;6.42;60.53
68578;SHT31;61668;45.388;11.784;2023-04-07T00:18:48;6.38;60.44
68578;SHT31;61668;45.388;11.784;2023-04-07T00:21:14;6.34;60.28
68578;SHT31;61668;45.388;11.784;2023-04-07T00:23:39;6.29;60.23
68578;SHT31;61668;45.388;11.784;2023-04-07T00:26:06;6.26;60.24
68578;SHT31;61668;45.388;11.784;2023-04-07T00:28:32;6.20;60.27
68578;SHT31;61668;45.388;11.784;2023-04-07T00:30:58;6.18;60.19
68578;SHT31;61668;45.388;11.784;2023-04-07T00:33:23;6.14;60.20
68578;SHT31;61668;45.388;11.784;2023-04-07T00:35:50;6.10;60.38
68578;SHT31;61668;45.388;11.784;2023-04-07T00:38:16;6.07;60.48
68578;SHT31;61668;45.388;11.784;2023-04-07T00:40:41;6.03;60.50
68578;SHT31;61668;45.388;11.784;2023-04-07T00:43:07;5.99;60.61
68578;SHT31;61668;45.388;11.784;2023-04-07T00:45:33;5.96;60.78
68578;SHT31;61668;45.388;11.784;2023-04-07T00:48:00;5.94;60.97
68578;SHT31;61668;45.388;11.784;2023-04-07T00:50:26;5.90;61.07
68578;SHT31;61668;45.388;11.784;2023-04-07T00:52:52;5.86;61.23
68578;SHT31;61668;45.388;11.784;2023-04-07T00:55:21;5.80;61.17
68578;SHT31;61668;45.388;11.784;2023-04-07T00:57:47;5.75;61.04
68578;SHT31;61668;45.388;11.784;2023-04-07T01:00:13;5.71;60.97
68578;SHT31;61668;45.388;11.784;2023-04-07T01:02:44;5.68;60.90
68578;SHT31;61668;45.388;11.784;2023-04-07T01:13:22;5.56;61.32
68578;SHT31;61668;45.388;11.784;2023-04-07T01:15:54;5.54;61.38
68578;SHT31;61668;45.388;11.784;2023-04-07T01:18:30;5.52;61.57
68578;SHT31;61668;45.388;11.784;2023-04-07T01:21:02;5.52;61.71
68578;SHT31;61668;45.388;11.784;2023-04-07T01:23:37;5.49;61.81
68578;SHT31;61668;45.388;11.784;2023-04-07T01:26:25;5.48;62.03
68578;SHT31;61668;45.388;11.784;2023-04-07T01:32:11;5.43;62.35
68578;SHT31;61668;45.388;11.784;2023-04-07T01:34:39;5.41;62.45
68578;SHT31;61668;45.388;11.784;2023-04-07T01:37:06;5.38;62.42
68578;SHT31;61668;45.388;11.784;2023-04-07T01:39:33;5.35;62.49
68578;SHT31;61668;45.388;11.784;2023-04-07T01:42:01;5.34;62.60
68578;SHT31;61668;45.388;11.784;2023-04-07T01:44:28;5.31;62.83
68578;SHT31;61668;45.388;11.784;2023-04-07T01:46:56;5.30;63.02
68578;SHT31;61668;45.388;11.784;2023-04-07T01:49:24;5.27;63.24
68578;SHT31;61668;45.388;11.784;2023-04-07T01:51:51;5.24;63.32
68578;SHT31;61668;45.388;11.784;2023-04-07T01:54:18;5.23;63.44
68578;SHT31;61668;45.388;11.784;2023-04-07T01:56:46;5.21;63.64
68578;SHT31;61668;45.388;11.784;2023-04-07T01:59:11;5.19;63.84
68578;SHT31;61668;45.388;11.784;2023-04-07T02:01:37;5.18;64.06
68578;SHT31;61668;45.388;11.784;2023-04-07T02:06:55;5.15;64.16
68578;SHT31;61668;45.388;11.784;2023-04-07T02:09:27;5.14;64.46
68578;SHT31;61668;45.388;11.784;2023-04-07T02:11:57;5.12;64.71
68578;SHT31;61668;45.388;11.784;2023-04-07T02:14:25;5.10;64.71
68578;SHT31;61668;45.388;11.784;2023-04-07T02:16:52;5.06;64.84
68578;SHT31;61668;45.388;11.784;2023-04-07T02:19:19;5.01;64.97
68578;SHT31;61668;45.388;11.784;2023-04-07T02:21:45;4.99;64.94
68578;SHT31;61668;45.388;11.784;2023-04-07T02:24:12;4.96;64.92
68578;SHT31;61668;45.388;11.784;2023-04-07T02:26:38;4.95;65.10
68578;SHT31;61668;45.388;11.784;2023-04-07T02:29:05;4.95;65.30
68578;SHT31;61668;45.388;11.784;2023-04-07T02:31:31;4.93;65.11
68578;SHT31;61668;45.388;11.784;2023-04-07T02:33:56;4.93;65.04
68578;SHT31;61668;45.388;11.784;2023-04-07T02:36:22;4.95;65.15
68578;SHT31;61668;45.388;11.784;2023-04-07T02:38:48;4.97;65.05
68578;SHT31;61668;45.388;11.784;2023-04-07T02:41:14;4.98;64.80
68578;SHT31;61668;45.388;11.784;2023-04-07T02:43:40;5.00;64.54
68578;SHT31;61668;45.388;11.784;2023-04-07T02:46:05;5.05;64.52
68578;SHT31;61668;45.388;11.784;2023-04-07T02:48:31;5.08;64.68
68578;SHT31;61668;45.388;11.784;2023-04-07T02:50:57;5.11;64.85
68578;SHT31;61668;45.388;11.784;2023-04-07T02:53:23;5.15;64.89
68578;SHT31;61668;45.388;11.784;2023-04-07T02:55:49;5.18;64.83
68578;SHT31;61668;45.388;11.784;2023-04-07T02:58:14;5.23;64.72
68578;SHT31;61668;45.388;11.784;2023-04-07T03:00:40;5.26;64.63
68578;SHT31;61668;45.388;11.784;2023-04-07T03:03:06;5.30;64.82
68578;SHT31;61668;45.388;11.784;2023-04-07T03:05:31;5.33;64.74
68578;SHT31;61668;45.388;11.784;2023-04-07T03:07:57;5.36;64.78
68578;SHT31;61668;45.388;11.784;2023-04-07T03:10:23;5.39;65.00
68578;SHT31;61668;45.388;11.784;2023-04-07T03:12:48;5.41;65.18
68578;SHT31;61668;45.388;11.784;2023-04-07T03:15:14;5.44;65.58
68578;SHT31;61668;45.388;11.784;2023-04-07T03:17:40;5.45;66.01
68578;SHT31;61668;45.388;11.784;2023-04-07T03:20:06;5.46;66.27
68578;SHT31;61668;45.388;11.784;2023-04-07T03:22:33;5.48;66.42
68578;SHT31;61668;45.388;11.784;2023-04-07T03:24:58;5.47;66.44
68578;SHT31;61668;45.388;11.784;2023-04-07T03:27:25;5.48;66.56
68578;SHT31;61668;45.388;11.784;2023-04-07T03:29:51;5.47;66.74
68578;SHT31;61668;45.388;11.784;2023-04-07T03:32:17;5.47;66.89
68578;SHT31;61668;45.388;11.784;2023-04-07T03:34:42;5.47;67.09
68578;SHT31;61668;45.388;11.784;2023-04-07T03:37:08;5.49;67.11
68578;SHT31;61668;45.388;11.784;2023-04-07T03:39:34;5.48;67.23
68578;SHT31;61668;45.388;11.784;2023-04-07T03:42:01;5.47;67.20
68578;SHT31;61668;45.388;11.784;2023-04-07T03:44:28;5.48;67.19
68578;SHT31;61668;45.388;11.784;2023-04-07T03:46:54;5.49;67.15
68578;SHT31;61668;45.388;11.784;2023-04-07T03:49:19;5.48;67.34
68578;SHT31;61668;45.388;11.784;2023-04-07T03:51:46;5.46;67.52
68578;SHT31;61668;45.388;11.784;2023-04-07T03:54:11;5.46;67.67
68578;SHT31;61668;45.388;11.784;2023-04-07T03:56:37;5.43;67.80
68578;SHT31;61668;45.388;11.784;2023-04-07T03:59:03;5.43;67.86
68578;SHT31;61668;45.388;11.784;2023-04-07T04:01:29;5.42;67.95
68578;SHT31;61668;45.388;11.784;2023-04-07T04:03:55;5.39;68.04
68578;SHT31;61668;45.388;11.784;2023-04-07T04:06:21;5.38;68.03
68578;SHT31;61668;45.388;11.784;2023-04-07T04:08:47;5.35;68.00
68578;SHT31;61668;45.388;11.784;2023-04-07T04:11:12;5.32;68.03
68578;SHT31;61668;45.388;11.784;2023-04-07T04:13:38;5.27;68.24
68578;SHT31;61668;45.388;11.784;2023-04-07T04:16:04;5.24;68.28
68578;SHT31;61668;45.388;11.784;2023-04-07T04:18:30;5.20;68.20
68578;SHT31;61668;45.388;11.784;2023-04-07T04:20:56;5.17;68.20
68578;SHT31;61668;45.388;11.784;2023-04-07T04:23:21;5.13;68.11
68578;SHT31;61668;45.388;11.784;2023-04-07T04:25:47;5.10;68.00
68578;SHT31;61668;45.388;11.784;2023-04-07T04:28:13;5.07;67.86
68578;SHT31;61668;45.388;11.784;2023-04-07T04:30:38;5.05;67.70
68578;SHT31;61668;45.388;11.784;2023-04-07T04:33:05;5.04;67.69
68578;SHT31;61668;45.388;11.784;2023-04-07T04:35:31;5.00;67.60
68578;SHT31;61668;45.388;11.784;2023-04-07T04:37:57;4.97;67.61
68578;SHT31;61668;45.388;11.784;2023-04-07T04:40:23;4.95;67.70
68578;SHT31;61668;45.388;11.784;2023-04-07T04:42:48;4.93;67.80
68578;SHT31;61668;45.388;11.784;2023-04-07T04:45:14;4.92;67.88
68578;SHT31;61668;45.388;11.784;2023-04-07T04:47:40;4.89;68.02
68578;SHT31;61668;45.388;11.784;2023-04-07T04:50:08;4.88;68.10
68578;SHT31;61668;45.388;11.784;2023-04-07T04:52:35;4.86;68.02
68578;SHT31;61668;45.388;11.784;2023-04-07T04:55:02;4.86;68.16
68578;SHT31;61668;45.388;11.784;2023-04-07T04:57:28;4.86;68.36
68578;SHT31;61668;45.388;11.784;2023-04-07T04:59:53;4.84;68.50
68578;SHT31;61668;45.388;11.784;2023-04-07T05:02:19;4.83;68.50
68578;SHT31;61668;45.388;11.784;2023-04-07T05:04:46;4.82;68.58
68578;SHT31;61668;45.388;11.784;2023-04-07T05:07:11;4.82;68.68
68578;SHT31;61668;45.388;11.784;2023-04-07T05:09:37;4.80;68.60
68578;SHT31;61668;45.388;11.784;2023-04-07T05:12:03;4.82;68.70
68578;SHT31;61668;45.388;11.784;2023-04-07T05:14:29;4.81;68.77
68578;SHT31;61668;45.388;11.784;2023-04-07T05:16:55;4.82;69.00
68578;SHT31;61668;45.388;11.784;2023-04-07T05:19:20;4.83;69.01
68578;SHT31;61668;45.388;11.784;2023-04-07T05:21:46;4.85;69.01
68578;SHT31;61668;45.388;11.784;2023-04-07T05:24:12;4.87;69.18
68578;SHT31;61668;45.388;11.784;2023-04-07T05:26:38;4.88;69.46
68578;SHT31;61668;45.388;11.784;2023-04-07T05:29:03;4.92;69.67
68578;SHT31;61668;45.388;11.784;2023-04-07T05:31:29;4.95;69.60
68578;SHT31;61668;45.388;11.784;2023-04-07T05:33:55;5.00;69.65
68578;SHT31;61668;45.388;11.784;2023-04-07T05:36:20;5.05;69.69
68578;SHT31;61668;45.388;11.784;2023-04-07T05:38:46;5.14;69.75
68578;SHT31;61668;45.388;11.784;2023-04-07T05:41:12;5.23;69.83
68578;SHT31;61668;45.388;11.784;2023-04-07T05:43:37;5.32;69.80
68578;SHT31;61668;45.388;11.784;2023-04-07T05:46:03;5.42;69.80
68578;SHT31;61668;45.388;11.784;2023-04-07T05:48:29;5.50;69.97
68578;SHT31;61668;45.388;11.784;2023-04-07T05:50:55;5.57;70.12
68578;SHT31;61668;45.388;11.784;2023-04-07T05:53:20;5.63;70.06
68578;SHT31;61668;45.388;11.784;2023-04-07T05:55:46;5.69;69.92
68578;SHT31;61668;45.388;11.784;2023-04-07T05:58:12;5.74;69.73
68578;SHT31;61668;45.388;11.784;2023-04-07T06:00:38;5.78;69.67
68578;SHT31;61668;45.388;11.784;2023-04-07T06:03:05;5.80;69.61
68578;SHT31;61668;45.388;11.784;2023-04-07T06:05:31;5.83;69.48
68578;SHT31;61668;45.388;11.784;2023-04-07T06:07:56;5.89;69.34
68578;SHT31;61668;45.388;11.784;2023-04-07T06:10:22;5.97;69.22
68578;SHT31;61668;45.388;11.784;2023-04-07T06:12:48;6.06;69.20
68578;SHT31;61668;45.388;11.784;2023-04-07T06:15:14;6.19;69.19
68578;SHT31;61668;45.388;11.784;2023-04-07T06:17:39;6.32;69.08
68578;SHT31;61668;45.388;11.784;2023-04-07T06:20:05;6.44;68.98
68578;SHT31;61668;45.388;11.784;2023-04-07T06:22:32;6.57;68.73
68578;SHT31;61668;45.388;11.784;2023-04-07T06:24:58;6.68;68.39
68578;SHT31;61668;45.388;11.784;2023-04-07T06:27:24;6.78;68.12
68578;SHT31;61668;45.388;11.784;2023-04-07T06:29:50;6.86;67.90
68578;SHT31;61668;45.388;11.784;2023-04-07T06:32:16;6.95;67.61
68578;SHT31;61668;45.388;11.784;2023-04-07T06:34:41;7.05;67.40
68578;SHT31;61668;45.388;11.784;2023-04-07T06:37:07;7.14;67.24
68578;SHT31;61668;45.388;11.784;2023-04-07T06:39:33;7.24;66.94
68578;SHT31;61668;45.388;11.784;2023-04-07T06:41:58;7.33;66.69
68578;SHT31;61668;45.388;11.784;2023-04-07T06:44:25;7.38;66.43
68578;SHT31;61668;45.388;11.784;2023-04-07T06:46:51;7.42;66.09
68578;SHT31;61668;45.388;11.784;2023-04-07T06:49:17;7.46;65.78
68578;SHT31;61668;45.388;11.784;2023-04-07T06:51:46;7.93;65.19
68578;SHT31;61668;45.388;11.784;2023-04-07T06:54:11;8.80;63.62
68578;SHT31;61668;45.388;11.784;2023-04-07T06:56:39;9.60;62.00
68578;SHT31;61668;45.388;11.784;2023-04-07T06:59:06;10.32;60.74
68578;SHT31;61668;45.388;11.784;2023-04-07T07:01:32;11.03;59.41
68578;SHT31;61668;45.388;11.784;2023-04-07T07:03:58;11.73;57.86
68578;SHT31;61668;45.388;11.784;2023-04-07T07:06:27;12.41;56.53
68578;SHT31;61668;45.388;11.784;2023-04-07T07:08:53;13.06;55.42
68578;SHT31;61668;45.388;11.784;2023-04-07T07:11:19;13.67;53.72
68578;SHT31;61668;45.388;11.784;2023-04-07T07:13:44;13.83;52.51
68578;SHT31;61668;45.388;11.784;2023-04-07T07:16:10;13.28;53.81
68578;SHT31;61668;45.388;11.784;2023-04-07T07:18:39;12.98;53.90
68578;SHT31;61668;45.388;11.784;2023-04-07T07:21:05;12.70;53.74
68578;SHT31;61668;45.388;11.784;2023-04-07T07:23:30;12.48;53.95
68578;SHT31;61668;45.388;11.784;2023-04-07T07:25:56;12.37;54.53
68578;SHT31;61668;45.388;11.784;2023-04-07T07:28:22;12.83;54.11
68578;SHT31;61668;45.388;11.784;2023-04-07T07:30:47;14.06;52.09
68578;SHT31;61668;45.388;11.784;2023-04-07T07:33:13;15.11;50.36
68578;SHT31;61668;45.388;11.784;2023-04-07T07:35:39;15.95;49.51
68578;SHT31;61668;45.388;11.784;2023-04-07T07:38:05;16.66;48.06
68578;SHT31;61668;45.388;11.784;2023-04-07T07:40:31;17.23;47.10
68578;SHT31;61668;45.388;11.784;2023-04-07T07:42:58;17.87;45.81
68578;SHT31;61668;45.388;11.784;2023-04-07T07:45:26;18.48;44.73
68578;SHT31;61668;45.388;11.784;2023-04-07T07:47:51;19.06;44.04
68578;SHT31;61668;45.388;11.784;2023-04-07T07:50:17;19.64;43.33
68578;SHT31;61668;45.388;11.784;2023-04-07T07:52:43;20.24;42.27
68578;SHT31;61668;45.388;11.784;2023-04-07T07:55:09;20.74;40.63
68578;SHT31;61668;45.388;11.784;2023-04-07T07:57:35;21.18;39.95
68578;SHT31;61668;45.388;11.784;2023-04-07T08:00:01;21.69;39.45
68578;SHT31;61668;45.388;11.784;2023-04-07T08:02:28;22.20;38.52
68578;SHT31;61668;45.388;11.784;2023-04-07T08:04:57;22.62;37.48
68578;SHT31;61668;45.388;11.784;2023-04-07T08:07:22;22.90;36.84
68578;SHT31;61668;45.388;11.784;2023-04-07T08:09:48;23.11;36.50
68578;SHT31;61668;45.388;11.784;2023-04-07T08:12:15;23.35;36.09
68578;SHT31;61668;45.388;11.784;2023-04-07T08:14:40;23.63;35.60
68578;SHT31;61668;45.388;11.784;2023-04-07T08:17:07;23.99;35.24
68578;SHT31;61668;45.388;11.784;2023-04-07T08:19:33;24.44;34.52
68578;SHT31;61668;45.388;11.784;2023-04-07T08:21:59;24.79;33.83
68578;SHT31;61668;45.388;11.784;2023-04-07T08:24:25;25.12;33.42
68578;SHT31;61668;45.388;11.784;2023-04-07T08:26:52;25.42;32.48
68578;SHT31;61668;45.388;11.784;2023-04-07T08:29:17;25.67;31.45
68578;SHT31;61668;45.388;11.784;2023-04-07T08:31:43;25.76;31.85
68578;SHT31;61668;45.388;11.784;2023-04-07T08:34:09;25.94;31.37
68578;SHT31;61668;45.388;11.784;2023-04-07T08:36:35;26.18;31.14
68578;SHT31;61668;45.388;11.784;2023-04-07T08:39:00;25.77;31.08
68578;SHT31;61668;45.388;11.784;2023-04-07T08:41:39;24.90;31.36
68578;SHT31;61668;45.388;11.784;2023-04-07T08:44:09;24.56;31.89
68578;SHT31;61668;45.388;11.784;2023-04-07T08:46:38;25.20;31.71
68578;SHT31;61668;45.388;11.784;2023-04-07T08:49:09;25.73;30.92
68578;SHT31;61668;45.388;11.784;2023-04-07T08:51:39;26.13;30.45
68578;SHT31;61668;45.388;11.784;2023-04-07T08:54:12;26.64;29.72
68578;SHT31;61668;45.388;11.784;2023-04-07T08:56:40;26.99;29.34
68578;SHT31;61668;45.388;11.784;2023-04-07T08:59:08;27.07;28.97
68578;SHT31;61668;45.388;11.784;2023-04-07T09:01:36;27.24;28.05
68578;SHT31;61668;45.388;11.784;2023-04-07T09:04:03;27.01;27.84
68578;SHT31;61668;45.388;11.784;2023-04-07T09:06:31;26.83;26.80
68578;SHT31;61668;45.388;11.784;2023-04-07T09:08:59;26.23;26.64
68578;SHT31;61668;45.388;11.784;2023-04-07T09:11:26;25.61;27.23
68578;SHT31;61668;45.388;11.784;2023-04-07T09:13:53;25.27;27.16
68578;SHT31;61668;45.388;11.784;2023-04-07T09:16:20;25.44;27.24
68578;SHT31;61668;45.388;11.784;2023-04-07T09:18:47;25.85;27.41
68578;SHT31;61668;45.388;11.784;2023-04-07T09:21:13;26.26;27.08
68578;SHT31;61668;45.388;11.784;2023-04-07T09:23:41;26.33;26.62
68578;SHT31;61668;45.388;11.784;2023-04-07T09:26:20;26.34;26.51
68578;SHT31;61668;45.388;11.784;2023-04-07T09:28:58;26.31;26.14
68578;SHT31;61668;45.388;11.784;2023-04-07T09:31:46;26.15;25.71
68578;SHT31;61668;45.388;11.784;2023-04-07T09:34:26;25.96;25.84
68578;SHT31;61668;45.388;11.784;2023-04-07T09:37:00;25.64;26.03
68578;SHT31;61668;45.388;11.784;2023-04-07T09:39:27;25.54;26.45
68578;SHT31;61668;45.388;11.784;2023-04-07T09:41:53;25.43;26.10
68578;SHT31;61668;45.388;11.784;2023-04-07T09:44:20;25.17;25.42
68578;SHT31;61668;45.388;11.784;2023-04-07T09:49:23;24.27;25.49
68578;SHT31;61668;45.388;11.784;2023-04-07T09:54:35;23.58;26.12
68578;SHT31;61668;45.388;11.784;2023-04-07T09:57:03;23.55;26.24
68578;SHT31;61668;45.388;11.784;2023-04-07T09:59:35;23.39;25.50
68578;SHT31;61668;45.388;11.784;2023-04-07T10:02:03;23.20;25.99
68578;SHT31;61668;45.388;11.784;2023-04-07T10:04:30;23.10;26.21
68578;SHT31;61668;45.388;11.784;2023-04-07T10:06:56;22.92;26.21
68578;SHT31;61668;45.388;11.784;2023-04-07T10:09:27;22.70;26.14
68578;SHT31;61668;45.388;11.784;2023-04-07T10:11:55;22.44;25.74
68578;SHT31;61668;45.388;11.784;2023-04-07T10:14:30;22.29;26.11
68578;SHT31;61668;45.388;11.784;2023-04-07T10:16:59;22.08;26.29
68578;SHT31;61668;45.388;11.784;2023-04-07T10:19:31;21.78;26.94
68578;SHT31;61668;45.388;11.784;2023-04-07T10:21:58;21.53;26.94
68578;SHT31;61668;45.388;11.784;2023-04-07T10:24:39;21.32;26.25
68578;SHT31;61668;45.388;11.784;2023-04-07T10:30:25;20.74;27.97
68578;SHT31;61668;45.388;11.784;2023-04-07T10:32:54;20.53;28.38
68578;SHT31;61668;45.388;11.784;2023-04-07T10:35:20;20.42;28.85
68578;SHT31;61668;45.388;11.784;2023-04-07T10:40:31;20.40;27.91
68578;SHT31;61668;45.388;11.784;2023-04-07T10:42:58;20.54;28.27
68578;SHT31;61668;45.388;11.784;2023-04-07T10:48:13;20.71;28.13
68578;SHT31;61668;45.388;11.784;2023-04-07T10:50:41;20.68;28.19
68578;SHT31;61668;45.388;11.784;2023-04-07T10:53:07;20.71;28.55
68578;SHT31;61668;45.388;11.784;2023-04-07T11:03:51;20.59;27.69
68578;SHT31;61668;45.388;11.784;2023-04-07T11:06:20;20.39;27.87
68578;SHT31;61668;45.388;11.784;2023-04-07T11:08:46;20.32;27.80
68578;SHT31;61668;45.388;11.784;2023-04-07T11:11:15;20.37;27.77
68578;SHT31;61668;45.388;11.784;2023-04-07T11:14:01;20.38;28.23
68578;SHT31;61668;45.388;11.784;2023-04-07T11:16:37;20.46;28.21
68578;SHT31;61668;45.388;11.784;2023-04-07T11:19:07;20.49;28.13
68578;SHT31;61668;45.388;11.784;2023-04-07T11:21:34;20.42;27.76
68578;SHT31;61668;45.388;11.784;2023-04-07T11:24:00;20.32;28.24
68578;SHT31;61668;45.388;11.784;2023-04-07T11:26:26;20.31;28.11
68578;SHT31;61668;45.388;11.784;2023-04-07T11:28:53;20.25;28.12
68578;SHT31;61668;45.388;11.784;2023-04-07T11:31:25;20.16;27.90
68578;SHT31;61668;45.388;11.784;2023-04-07T11:33:59;20.03;28.23
68578;SHT31;61668;45.388;11.784;2023-04-07T11:36:28;19.97;28.19
68578;SHT31;61668;45.388;11.784;2023-04-07T11:38:56;20.00;28.19
68578;SHT31;61668;45.388;11.784;2023-04-07T11:41:24;20.06;28.60
68578;SHT31;61668;45.388;11.784;2023-04-07T11:44:05;19.99;28.22
68578;SHT31;61668;45.388;11.784;2023-04-07T11:46:33;19.84;28.12
68578;SHT31;61668;45.388;11.784;2023-04-07T11:49:11;19.67;28.18
68578;SHT31;61668;45.388;11.784;2023-04-07T11:51:41;19.51;28.35
68578;SHT31;61668;45.388;11.784;2023-04-07T11:54:09;19.40;28.71
68578;SHT31;61668;45.388;11.784;2023-04-07T11:56:45;19.34;28.72
68578;SHT31;61668;45.388;11.784;2023-04-07T11:59:19;19.23;28.56
68578;SHT31;61668;45.388;11.784;2023-04-07T12:01:47;19.15;28.66
68578;SHT31;61668;45.388;11.784;2023-04-07T12:04:14;19.13;28.66
68578;SHT31;61668;45.388;11.784;2023-04-07T12:06:41;19.17;28.97
68578;SHT31;61668;45.388;11.784;2023-04-07T12:09:24;19.14;28.82
68578;SHT31;61668;45.388;11.784;2023-04-07T12:11:54;19.09;29.03
68578;SHT31;61668;45.388;11.784;2023-04-07T12:14:21;19.06;28.88
68578;SHT31;61668;45.388;11.784;2023-04-07T12:16:48;19.00;28.77
68578;SHT31;61668;45.388;11.784;2023-04-07T12:19:14;18.97;28.86
68578;SHT31;61668;45.388;11.784;2023-04-07T12:21:40;19.00;28.66
68578;SHT31;61668;45.388;11.784;2023-04-07T12:24:06;19.06;29.15
68578;SHT31;61668;45.388;11.784;2023-04-07T12:26:32;19.14;29.52
68578;SHT31;61668;45.388;11.784;2023-04-07T12:28:57;19.24;29.34
68578;SHT31;61668;45.388;11.784;2023-04-07T12:31:29;19.31;29.17
68578;SHT31;61668;45.388;11.784;2023-04-07T12:33:57;19.38;28.68
68578;SHT31;61668;45.388;11.784;2023-04-07T12:36:23;19.38;28.44
68578;SHT31;61668;45.388;11.784;2023-04-07T12:38:51;19.38;28.33
68578;SHT31;61668;45.388;11.784;2023-04-07T12:41:18;19.36;28.09
68578;SHT31;61668;45.388;11.784;2023-04-07T12:43:44;19.32;28.16
68578;SHT31;61668;45.388;11.784;2023-04-07T12:46:10;19.30;28.18
68578;SHT31;61668;45.388;11.784;2023-04-07T12:48:36;19.30;27.84
68578;SHT31;61668;45.388;11.784;2023-04-07T12:51:02;19.30;27.54
68578;SHT31;61668;45.388;11.784;2023-04-07T12:53:28;19.35;28.44
68578;SHT31;61668;45.388;11.784;2023-04-07T12:55:54;19.36;30.38
68578;SHT31;61668;45.388;11.784;2023-04-07T12:58:21;19.31;31.51
68578;SHT31;61668;45.388;11.784;2023-04-07T13:00:50;19.21;31.60
68578;SHT31;61668;45.388;11.784;2023-04-07T13:03:17;19.11;31.80
68578;SHT31;61668;45.388;11.784;2023-04-07T13:05:43;19.06;32.18
68578;SHT31;61668;45.388;11.784;2023-04-07T13:08:09;19.04;31.85
68578;SHT31;61668;45.388;11.784;2023-04-07T13:10:35;19.03;31.79
68578;SHT31;61668;45.388;11.784;2023-04-07T13:13:01;19.02;31.96
68578;SHT31;61668;45.388;11.784;2023-04-07T13:15:26;19.01;32.37
68578;SHT31;61668;45.388;11.784;2023-04-07T13:17:53;19.02;32.36
68578;SHT31;61668;45.388;11.784;2023-04-07T13:20:19;19.02;32.44
68578;SHT31;61668;45.388;11.784;2023-04-07T13:22:46;18.97;32.95
68578;SHT31;61668;45.388;11.784;2023-04-07T13:25:12;18.91;33.32
68578;SHT31;61668;45.388;11.784;2023-04-07T13:27:38;18.89;33.39
68578;SHT31;61668;45.388;11.784;2023-04-07T13:30:05;18.85;33.30
68578;SHT31;61668;45.388;11.784;2023-04-07T13:32:32;18.82;33.45
68578;SHT31;61668;45.388;11.784;2023-04-07T13:34:57;18.78;33.83
68578;SHT31;61668;45.388;11.784;2023-04-07T13:37:24;18.72;33.84
68578;SHT31;61668;45.388;11.784;2023-04-07T13:39:50;18.67;33.99
68578;SHT31;61668;45.388;11.784;2023-04-07T13:42:16;18.63;33.88
68578;SHT31;61668;45.388;11.784;2023-04-07T13:44:44;18.56;34.30
68578;SHT31;61668;45.388;11.784;2023-04-07T13:47:12;18.48;34.96
68578;SHT31;61668;45.388;11.784;2023-04-07T13:49:47;18.38;35.31
68578;SHT31;61668;45.388;11.784;2023-04-07T13:52:14;18.28;35.52
68578;SHT31;61668;45.388;11.784;2023-04-07T13:54:40;18.20;35.46
68578;SHT31;61668;45.388;11.784;2023-04-07T13:57:07;18.09;35.78
68578;SHT31;61668;45.388;11.784;2023-04-07T13:59:33;17.98;36.21
68578;SHT31;61668;45.388;11.784;2023-04-07T14:01:58;17.94;36.57
68578;SHT31;61668;45.388;11.784;2023-04-07T14:04:24;17.83;35.98
68578;SHT31;61668;45.388;11.784;2023-04-07T14:06:50;17.71;36.06
68578;SHT31;61668;45.388;11.784;2023-04-07T14:09:16;17.57;36.07
68578;SHT31;61668;45.388;11.784;2023-04-07T14:11:42;17.43;36.48
68578;SHT31;61668;45.388;11.784;2023-04-07T14:14:07;17.34;37.18
68578;SHT31;61668;45.388;11.784;2023-04-07T14:16:33;17.25;37.70
68578;SHT31;61668;45.388;11.784;2023-04-07T14:19:00;17.14;37.94
68578;SHT31;61668;45.388;11.784;2023-04-07T14:21:26;17.05;38.07
68578;SHT31;61668;45.388;11.784;2023-04-07T14:23:53;16.97;38.28
68578;SHT31;61668;45.388;11.784;2023-04-07T14:26:19;16.90;37.90
68578;SHT31;61668;45.388;11.784;2023-04-07T14:28:45;16.85;37.56
68578;SHT31;61668;45.388;11.784;2023-04-07T14:31:14;16.83;37.86
68578;SHT31;61668;45.388;11.784;2023-04-07T14:33:44;16.84;38.37
68578;SHT31;61668;45.388;11.784;2023-04-07T14:36:13;16.79;38.79
68578;SHT31;61668;45.388;11.784;2023-04-07T14:38:40;16.73;39.19
68578;SHT31;61668;45.388;11.784;2023-04-07T14:41:08;16.67;39.33
68578;SHT31;61668;45.388;11.784;2023-04-07T14:43:34;16.67;39.63
68578;SHT31;61668;45.388;11.784;2023-04-07T14:46:00;16.67;39.57
68578;SHT31;61668;45.388;11.784;2023-04-07T14:48:26;16.67;40.09
68578;SHT31;61668;45.388;11.784;2023-04-07T14:50:52;16.64;40.37
68578;SHT31;61668;45.388;11.784;2023-04-07T14:53:18;16.57;40.27
68578;SHT31;61668;45.388;11.784;2023-04-07T14:55:43;16.53;40.32
68578;SHT31;61668;45.388;11.784;2023-04-07T14:58:09;16.49;40.45
68578;SHT31;61668;45.388;11.784;2023-04-07T15:00:35;16.48;40.72
68578;SHT31;61668;45.388;11.784;2023-04-07T15:03:01;16.45;40.72
68578;SHT31;61668;45.388;11.784;2023-04-07T15:05:28;16.41;41.06
68578;SHT31;61668;45.388;11.784;2023-04-07T15:07:54;16.38;41.24
68578;SHT31;61668;45.388;11.784;2023-04-07T15:10:21;16.35;41.58
68578;SHT31;61668;45.388;11.784;2023-04-07T15:12:46;16.36;41.78
68578;SHT31;61668;45.388;11.784;2023-04-07T15:15:15;16.35;41.83
68578;SHT31;61668;45.388;11.784;2023-04-07T15:17:41;16.36;41.93
68578;SHT31;61668;45.388;11.784;2023-04-07T15:20:07;16.35;41.66
68578;SHT31;61668;45.388;11.784;2023-04-07T15:22:34;16.31;41.34
68578;SHT31;61668;45.388;11.784;2023-04-07T15:25:00;16.30;41.36
68578;SHT31;61668;45.388;11.784;2023-04-07T15:27:27;16.30;41.69
68578;SHT31;61668;45.388;11.784;2023-04-07T15:29:53;16.31;41.98
68578;SHT31;61668;45.388;11.784;2023-04-07T15:32:19;16.29;42.33
68578;SHT31;61668;45.388;11.784;2023-04-07T15:34:44;16.26;42.75
68578;SHT31;61668;45.388;11.784;2023-04-07T15:37:11;16.25;42.78
68578;SHT31;61668;45.388;11.784;2023-04-07T15:39:42;16.20;42.88
68578;SHT31;61668;45.388;11.784;2023-04-07T15:42:08;16.13;43.04
68578;SHT31;61668;45.388;11.784;2023-04-07T15:44:36;16.09;43.15
68578;SHT31;61668;45.388;11.784;2023-04-07T15:47:04;16.06;43.34
68578;SHT31;61668;45.388;11.784;2023-04-07T15:49:30;16.06;43.46
68578;SHT31;61668;45.388;11.784;2023-04-07T15:51:57;16.08;43.44
68578;SHT31;61668;45.388;11.784;2023-04-07T15:54:25;16.08;43.29
68578;SHT31;61668;45.388;11.784;2023-04-07T15:56:51;16.08;43.33
68578;SHT31;61668;45.388;11.784;2023-04-07T15:59:17;16.09;43.31